Time;durP1;ratioP1;P1;durP2;ratioP2;P2;SDS_P1;SDS_P2;PMS_P1;PMS_P2;Temp;Humidity;BMP_temperature;BMP_pressure;BME280_temperature;BME280_humidity;BME280_pressure;Samples;Min_cycle;Max_cycle;Signal;HPM_P1;HPM_P2
2021/12/04 00:00:10;;;;;;;21.05;10.63;;;;;;;;;;5096959;28;20036;-77
2021/12/04 00:02:36;;;;;;;27.17;12.32;;;;;;;;;;5063447;28;20078;-78
2021/12/04 00:05:04;;;;;;;27.60;11.13;;;;;;;;;;5079031;28;20389;-77
2021/12/04 00:07:32;;;;;;;23.63;10.95;;;;;;;;;;5062562;28;20024;-77
2021/12/04 00:10:01;;;;;;;24.42;11.77;;;;;;;;;;5096886;28;20024;-77
2021/12/04 00:12:27;;;;;;;28.13;11.77;;;;;;;;;;5096532;28;20020;-77
2021/12/04 00:14:52;;;;;;;19.80;10.90;;;;;;;;;;5096825;28;20039;-77
2021/12/04 00:17:18;;;;;;;18.33;8.98;;;;;;;;;;5096680;28;20070;-77
2021/12/04 00:19:43;;;;;;;20.25;9.15;;;;;;;;;;5096637;28;20437;-76
2021/12/04 00:22:09;;;;;;;17.13;8.85;;;;;;;;;;5096640;28;20036;-77
2021/12/04 00:24:35;;;;;;;18.02;9.30;;;;;;;;;;5096351;28;20078;-77
2021/12/04 00:27:00;;;;;;;19.88;9.07;;;;;;;;;;5096469;28;20463;-77
2021/12/04 00:29:26;;;;;;;19.77;10.05;;;;;;;;;;5096538;28;20028;-78
2021/12/04 00:31:58;;;;;;;19.42;9.30;;;;;;;;;;5096464;28;20385;-78
2021/12/04 00:34:25;;;;;;;21.45;10.35;;;;;;;;;;5096361;28;20462;-77
2021/12/04 00:37:06;;;;;;;20.10;10.13;;;;;;;;;;5096303;28;20028;-77
2021/12/04 00:50:28;;;;;;;20.75;9.82;;;;;;;;;;5096075;28;20038;-77
2021/12/04 00:52:55;;;;;;;27.30;11.18;;;;;;;;;;5096285;28;20403;-78
2021/12/04 00:55:20;;;;;;;25.83;11.15;;;;;;;;;;5095689;28;20396;-78
2021/12/04 00:57:46;;;;;;;22.88;10.75;;;;;;;;;;5077957;28;20028;-78
2021/12/04 01:00:12;;;;;;;25.75;10.27;;;;;;;;;;5095969;28;20169;-78
2021/12/04 01:02:37;;;;;;;21.05;9.73;;;;;;;;;;5095859;28;20028;-78
2021/12/04 01:05:03;;;;;;;25.80;10.57;;;;;;;;;;5096033;28;20116;-78
2021/12/04 01:07:28;;;;;;;23.13;10.77;;;;;;;;;;5078018;28;20024;-77
2021/12/04 01:09:54;;;;;;;28.67;11.07;;;;;;;;;;5095451;28;20028;-77
2021/12/04 01:12:20;;;;;;;26.42;11.75;;;;;;;;;;5095749;28;20024;-77
2021/12/04 01:14:45;;;;;;;23.40;10.65;;;;;;;;;;5095905;28;20020;-77
2021/12/04 01:17:11;;;;;;;21.92;10.13;;;;;;;;;;5095575;28;20024;-78
2021/12/04 01:19:36;;;;;;;21.23;9.63;;;;;;;;;;5095495;28;20130;-78
2021/12/04 01:22:03;;;;;;;24.40;10.50;;;;;;;;;;5095468;28;20034;-78
2021/12/04 01:24:28;;;;;;;22.85;10.75;;;;;;;;;;5095194;28;20073;-77
2021/12/04 01:26:54;;;;;;;20.80;10.23;;;;;;;;;;5095415;28;20081;-78
2021/12/04 01:29:20;;;;;;;30.73;11.10;;;;;;;;;;5095364;28;20043;-78
2021/12/04 01:31:45;;;;;;;20.95;10.00;;;;;;;;;;5077335;28;20024;-77
2021/12/04 01:34:11;;;;;;;19.90;9.57;;;;;;;;;;5095215;28;20031;-78
2021/12/04 01:36:36;;;;;;;19.42;9.48;;;;;;;;;;5077311;28;20024;-77
2021/12/04 01:39:03;;;;;;;24.23;9.13;;;;;;;;;;5076837;28;20446;-77
2021/12/04 01:41:29;;;;;;;18.27;9.90;;;;;;;;;;5077085;28;20024;-78
2021/12/04 01:43:57;;;;;;;19.20;9.23;;;;;;;;;;5095037;28;20334;-78
2021/12/04 01:46:23;;;;;;;35.35;15.63;;;;;;;;;;5095060;28;20083;-77
2021/12/04 01:48:49;;;;;;;29.92;13.85;;;;;;;;;;5094942;28;20042;-78
2021/12/04 01:51:14;;;;;;;21.40;10.18;;;;;;;;;;5095224;28;20016;-78
2021/12/04 01:53:39;;;;;;;18.08;9.40;;;;;;;;;;5094638;28;20443;-77
2021/12/04 01:56:05;;;;;;;18.98;9.23;;;;;;;;;;5094953;28;20106;-78
2021/12/04 01:58:30;;;;;;;21.50;9.23;;;;;;;;;;5094770;28;20028;-78
2021/12/04 02:00:56;;;;;;;17.42;8.60;;;;;;;;;;5094801;28;20032;-78
2021/12/04 02:03:22;;;;;;;16.80;8.70;;;;;;;;;;5076779;28;20082;-78
2021/12/04 02:05:48;;;;;;;17.45;9.25;;;;;;;;;;5094713;28;20525;-77
2021/12/04 02:08:15;;;;;;;17.23;8.13;;;;;;;;;;5094668;28;20358;-77
2021/12/04 02:10:41;;;;;;;19.50;9.00;;;;;;;;;;5076327;28;20370;-77
2021/12/04 02:13:06;;;;;;;15.98;8.20;;;;;;;;;;5094589;28;20111;-77
2021/12/04 02:15:32;;;;;;;19.25;8.55;;;;;;;;;;5094597;28;20028;-77
2021/12/04 02:17:57;;;;;;;17.67;8.77;;;;;;;;;;5076535;28;20118;-77
2021/12/04 02:20:31;;;;;;;23.00;9.60;;;;;;;;;;5094365;28;20122;-78
2021/12/04 02:22:56;;;;;;;21.65;9.60;;;;;;;;;;5094158;28;20023;-77
2021/12/04 02:25:22;;;;;;;16.90;8.35;;;;;;;;;;5094533;28;20031;-78
2021/12/04 02:27:47;;;;;;;24.67;9.00;;;;;;;;;;5094514;28;20031;-78
2021/12/04 02:30:19;;;;;;;18.33;8.55;;;;;;;;;;5094277;28;20023;-77
2021/12/04 02:32:45;;;;;;;15.95;8.60;;;;;;;;;;5094301;28;20020;-77
2021/12/04 02:35:11;;;;;;;14.90;7.93;;;;;;;;;;5075891;28;20032;-77
2021/12/04 02:37:38;;;;;;;18.45;8.90;;;;;;;;;;5094432;28;20094;-77
2021/12/04 02:40:05;;;;;;;17.60;9.10;;;;;;;;;;5094025;28;20138;-78
2021/12/04 02:42:31;;;;;;;18.60;9.25;;;;;;;;;;5094425;28;20020;-77
2021/12/04 02:45:01;;;;;;;17.83;8.40;;;;;;;;;;5094167;28;20339;-77
2021/12/04 02:47:27;;;;;;;15.20;8.48;;;;;;;;;;5094178;28;20020;-78
2021/12/04 02:49:52;;;;;;;15.27;7.90;;;;;;;;;;5094198;28;20038;-77
2021/12/04 02:52:19;;;;;;;16.05;7.93;;;;;;;;;;5094059;28;20111;-77
2021/12/04 02:54:44;;;;;;;16.77;8.40;;;;;;;;;;5093958;28;20024;-77
2021/12/04 02:57:11;;;;;;;17.05;8.00;;;;;;;;;;5094025;28;20085;-77
2021/12/04 02:59:38;;;;;;;17.85;7.90;;;;;;;;;;5075986;28;20132;-77
2021/12/04 03:02:10;;;;;;;17.45;7.80;;;;;;;;;;5094231;28;20357;-77
2021/12/04 03:04:35;;;;;;;14.10;7.75;;;;;;;;;;5076461;28;20059;-77
2021/12/04 03:07:01;;;;;;;20.02;7.38;;;;;;;;;;5094051;28;20070;-76
2021/12/04 03:09:26;;;;;;;15.20;7.70;;;;;;;;;;5094195;28;20031;-77
2021/12/04 03:11:52;;;;;;;16.48;7.28;;;;;;;;;;5075987;28;20052;-78
2021/12/04 03:14:19;;;;;;;17.77;7.88;;;;;;;;;;5075862;28;20028;-77
2021/12/04 03:16:45;;;;;;;15.30;8.02;;;;;;;;;;5094183;28;20028;-77
2021/12/04 03:19:10;;;;;;;16.35;7.07;;;;;;;;;;5093586;28;20522;-77
2021/12/04 03:21:37;;;;;;;15.50;7.40;;;;;;;;;;5095344;28;20441;-77
2021/12/04 03:24:05;;;;;;;16.80;8.10;;;;;;;;;;5079625;28;20402;-77
2021/12/04 03:26:31;;;;;;;27.77;12.27;;;;;;;;;;5097755;28;20463;-76
2021/12/04 03:28:59;;;;;;;31.77;13.95;;;;;;;;;;5079839;28;20075;-77
2021/12/04 03:42:21;;;;;;;15.60;8.25;;;;;;;;;;5097509;28;20427;-77
2021/12/04 03:44:47;;;;;;;17.35;8.23;;;;;;;;;;5097304;28;20027;-77
2021/12/04 03:47:12;;;;;;;17.33;8.80;;;;;;;;;;5097271;28;20048;-77
2021/12/04 03:49:38;;;;;;;22.33;10.15;;;;;;;;;;5097161;28;20027;-76
2021/12/04 03:52:05;;;;;;;20.73;9.88;;;;;;;;;;5102826;28;20028;-76
2021/12/04 03:54:30;;;;;;;24.10;9.70;;;;;;;;;;5104713;28;20035;-77
2021/12/04 03:57:05;;;;;;;20.77;10.40;;;;;;;;;;5102825;28;20020;-76
2021/12/04 03:59:35;;;;;;;16.88;8.50;;;;;;;;;;5100819;28;20050;-78
2021/12/04 04:02:01;;;;;;;18.08;9.57;;;;;;;;;;5100368;28;20434;-77
2021/12/04 04:04:26;;;;;;;21.08;10.43;;;;;;;;;;5096767;28;20024;-77
2021/12/04 04:06:52;;;;;;;20.23;10.18;;;;;;;;;;5078971;28;20103;-77
2021/12/04 04:09:17;;;;;;;23.40;11.05;;;;;;;;;;5096873;28;20035;-77
2021/12/04 04:11:43;;;;;;;29.70;11.25;;;;;;;;;;5097097;28;20109;-78
2021/12/04 04:14:08;;;;;;;24.08;10.65;;;;;;;;;;5096807;28;20039;-78
2021/12/04 04:16:37;;;;;;;19.95;10.40;;;;;;;;;;5078490;28;20028;-78
2021/12/04 04:19:03;;;;;;;21.38;10.60;;;;;;;;;;5096703;28;20052;-78
2021/12/04 04:21:28;;;;;;;22.63;10.02;;;;;;;;;;5096624;28;20063;-78
2021/12/04 04:23:54;;;;;;;18.75;9.55;;;;;;;;;;5096671;28;20357;-79
2021/12/04 04:26:19;;;;;;;19.85;10.43;;;;;;;;;;5078619;28;20031;-77
2021/12/04 04:28:45;;;;;;;19.98;10.50;;;;;;;;;;5096621;28;20028;-77
2021/12/04 04:31:10;;;;;;;19.77;10.57;;;;;;;;;;5096203;28;20024;-78
2021/12/04 04:33:40;;;;;;;26.80;12.20;;;;;;;;;;5096000;28;20030;-76
2021/12/04 04:36:46;;;;;;;31.67;13.27;;;;;;;;;;5096964;28;20396;-76
2021/12/04 05:11:21;;;;;;;21.00;9.52;;;;;;;;;;5095802;28;20024;-78
2021/12/04 05:13:46;;;;;;;23.17;11.02;;;;;;;;;;5095978;28;20024;-78
2021/12/04 05:16:13;;;;;;;21.23;9.88;;;;;;;;;;5095455;28;20360;-77
2021/12/04 05:18:43;;;;;;;19.98;9.90;;;;;;;;;;5095719;28;20413;-78
2021/12/04 05:21:11;;;;;;;23.58;11.18;;;;;;;;;;5095618;28;20169;-78
2021/12/04 05:23:44;;;;;;;22.60;11.00;;;;;;;;;;5078185;28;20385;-78
2021/12/04 05:26:21;;;;;;;21.27;10.25;;;;;;;;;;5095443;28;20024;-75
2021/12/04 05:28:47;;;;;;;21.60;10.23;;;;;;;;;;5095511;28;20494;-76
2021/12/04 05:31:12;;;;;;;21.38;10.60;;;;;;;;;;5077087;28;20116;-75
2021/12/04 05:33:39;;;;;;;20.33;10.07;;;;;;;;;;5095318;28;20342;-76
2021/12/04 05:36:05;;;;;;;23.75;10.35;;;;;;;;;;5095139;28;20031;-76
2021/12/04 05:38:30;;;;;;;27.45;11.80;;;;;;;;;;5094976;28;20039;-77
2021/12/04 05:40:56;;;;;;;34.30;12.63;;;;;;;;;;5095175;28;20032;-77
2021/12/04 05:43:22;;;;;;;29.95;13.52;;;;;;;;;;5094747;28;20397;-76
2021/12/04 05:45:59;;;;;;;37.17;15.73;;;;;;;;;;5094472;28;20031;-77
2021/12/04 05:48:48;;;;;;;43.85;18.65;;;;;;;;;;5094997;28;20442;-77
2021/12/04 05:56:25;;;;;;;39.92;17.10;;;;;;;;;;5039152;28;20040;-77
2021/12/04 05:58:51;;;;;;;49.13;20.73;;;;;;;;;;5094393;28;20554;-77
2021/12/04 06:01:17;;;;;;;43.83;21.50;;;;;;;;;;5076737;28;20052;-77
2021/12/04 06:03:43;;;;;;;50.58;25.00;;;;;;;;;;5094664;28;20024;-77
2021/12/04 06:06:08;;;;;;;60.35;29.70;;;;;;;;;;5094720;28;20036;-77
2021/12/04 06:08:34;;;;;;;38.50;16.90;;;;;;;;;;5094600;28;20024;-77
2021/12/04 06:10:59;;;;;;;30.40;14.27;;;;;;;;;;5077533;28;20077;-76
2021/12/04 06:13:25;;;;;;;31.25;13.88;;;;;;;;;;5100572;28;20077;-78
2021/12/04 06:15:51;;;;;;;30.15;13.65;;;;;;;;;;5044725;28;20067;-77
2021/12/04 06:18:16;;;;;;;28.05;13.25;;;;;;;;;;5094702;28;20089;-79
2021/12/04 06:23:26;;;;;;;33.42;14.60;;;;;;;;;;5081610;28;20081;-76
2021/12/04 06:25:52;;;;;;;33.28;15.02;;;;;;;;;;5096445;28;20019;-77
2021/12/04 06:28:17;;;;;;;38.17;16.13;;;;;;;;;;5095815;28;20024;-76
2021/12/04 06:30:43;;;;;;;42.33;17.27;;;;;;;;;;5095370;28;20457;-77
2021/12/04 06:33:11;;;;;;;54.28;22.90;;;;;;;;;;5095450;28;20024;-76
2021/12/04 06:35:40;;;;;;;58.38;22.65;;;;;;;;;;5077475;28;20043;-76
2021/12/04 06:38:07;;;;;;;78.43;29.45;;;;;;;;;;5077597;28;20024;-76
2021/12/04 06:40:32;;;;;;;91.75;34.08;;;;;;;;;;5076384;28;20047;-77
2021/12/04 06:42:58;;;;;;;110.68;33.35;;;;;;;;;;5094075;28;20024;-77
2021/12/04 06:45:24;;;;;;;175.60;51.78;;;;;;;;;;5076280;28;20023;-78
2021/12/04 06:48:00;;;;;;;154.95;50.92;;;;;;;;;;5076209;28;20046;-78
2021/12/04 06:55:49;;;;;;;143.05;47.08;;;;;;;;;;5096030;28;20471;-77
2021/12/04 06:58:16;;;;;;;65.57;25.52;;;;;;;;;;5079813;28;20040;-78
2021/12/04 07:00:41;;;;;;;45.40;18.25;;;;;;;;;;5098078;28;21249;-78
2021/12/04 07:03:07;;;;;;;109.03;49.80;;;;;;;;;;5098246;28;20055;-80
2021/12/04 07:05:32;;;;;;;73.72;29.38;;;;;;;;;;5098438;28;20036;-76
2021/12/04 07:07:58;;;;;;;83.57;37.20;;;;;;;;;;5098077;28;20024;-81
2021/12/04 07:10:24;;;;;;;60.60;31.85;;;;;;;;;;5098010;28;20036;-78
2021/12/04 07:12:49;;;;;;;83.80;40.00;;;;;;;;;;5079767;28;20089;-77
2021/12/04 07:15:15;;;;;;;134.90;71.07;;;;;;;;;;5097992;28;20028;-78
2021/12/04 07:17:40;;;;;;;56.97;28.17;;;;;;;;;;5097989;28;20023;-78
2021/12/04 07:20:09;;;;;;;53.65;22.60;;;;;;;;;;5097768;28;20456;-78
2021/12/04 07:22:34;;;;;;;34.58;13.43;;;;;;;;;;5079798;28;20067;-78
2021/12/04 07:25:00;;;;;;;32.38;13.82;;;;;;;;;;5097757;28;20062;-78
2021/12/04 07:27:28;;;;;;;37.17;16.15;;;;;;;;;;5097439;28;20028;-78
2021/12/04 07:29:54;;;;;;;41.88;18.05;;;;;;;;;;5097667;28;20433;-77
2021/12/04 07:32:19;;;;;;;54.35;23.20;;;;;;;;;;5079341;28;20115;-77
2021/12/04 07:34:45;;;;;;;66.43;25.42;;;;;;;;;;5063006;28;20143;-78
2021/12/04 07:37:10;;;;;;;60.70;21.30;;;;;;;;;;5097640;28;20073;-77
2021/12/04 07:39:36;;;;;;;48.25;18.73;;;;;;;;;;5078904;28;20499;-76
2021/12/04 07:42:01;;;;;;;53.78;20.05;;;;;;;;;;5079205;28;20036;-78
2021/12/04 07:44:27;;;;;;;88.70;26.45;;;;;;;;;;5097376;28;20438;-77
2021/12/04 07:46:52;;;;;;;59.38;19.73;;;;;;;;;;5097342;28;20028;-76
2021/12/04 07:49:18;;;;;;;32.88;13.77;;;;;;;;;;5097310;28;20114;-76
2021/12/04 07:51:44;;;;;;;38.70;14.65;;;;;;;;;;5079269;28;20032;-76
2021/12/04 07:54:10;;;;;;;34.63;14.13;;;;;;;;;;5096905;28;20492;-77
2021/12/04 07:56:35;;;;;;;91.30;32.92;;;;;;;;;;5097285;28;20020;-77
2021/12/04 07:59:01;;;;;;;67.90;25.27;;;;;;;;;;5097016;28;20039;-76
2021/12/04 08:01:27;;;;;;;21.50;11.02;;;;;;;;;;5097047;28;20028;-76
2021/12/04 08:03:52;;;;;;;31.33;12.50;;;;;;;;;;5078894;28;20525;-77
2021/12/04 08:06:18;;;;;;;61.83;20.27;;;;;;;;;;5096823;28;20051;-77
2021/12/04 08:08:43;;;;;;;29.55;12.52;;;;;;;;;;5096228;28;20050;-76
2021/12/04 08:11:09;;;;;;;31.42;14.93;;;;;;;;;;5096947;28;20457;-76
2021/12/04 08:13:34;;;;;;;32.03;13.85;;;;;;;;;;5096858;28;20077;-77
2021/12/04 08:16:00;;;;;;;25.48;13.38;;;;;;;;;;5097100;28;20137;-77
2021/12/04 08:18:25;;;;;;;26.15;12.90;;;;;;;;;;5078746;28;20024;-77
2021/12/04 08:20:51;;;;;;;20.67;10.05;;;;;;;;;;5096528;28;20466;-78
2021/12/04 08:23:17;;;;;;;21.45;10.02;;;;;;;;;;5096407;28;20056;-79
2021/12/04 08:25:43;;;;;;;18.65;10.32;;;;;;;;;;5096610;28;20020;-78
2021/12/04 08:28:08;;;;;;;30.85;12.85;;;;;;;;;;5096643;28;20028;-77
2021/12/04 08:30:39;;;;;;;33.80;12.57;;;;;;;;;;5096480;28;20028;-77
2021/12/04 08:33:04;;;;;;;28.88;12.98;;;;;;;;;;5096545;28;20028;-77
2021/12/04 08:35:34;;;;;;;23.45;10.63;;;;;;;;;;5078524;28;20514;-77
2021/12/04 08:38:00;;;;;;;26.38;11.70;;;;;;;;;;5096109;28;20024;-75
2021/12/04 08:40:27;;;;;;;24.27;9.98;;;;;;;;;;5096141;28;20448;-79
2021/12/04 08:42:53;;;;;;;16.90;8.10;;;;;;;;;;5078223;28;20028;-77
2021/12/04 08:45:21;;;;;;;25.15;11.70;;;;;;;;;;5096252;28;20098;-78
2021/12/04 08:47:47;;;;;;;19.35;9.15;;;;;;;;;;5096173;28;20446;-78
2021/12/04 08:50:19;;;;;;;64.95;24.85;;;;;;;;;;5096168;28;20134;-76
2021/12/04 08:52:45;;;;;;;27.75;11.70;;;;;;;;;;5095918;28;20066;-77
2021/12/04 08:55:11;;;;;;;26.58;10.80;;;;;;;;;;5078191;28;20032;-76
2021/12/04 08:57:37;;;;;;;17.20;8.88;;;;;;;;;;5096013;28;20111;-76
2021/12/04 09:00:15;;;;;;;19.52;8.70;;;;;;;;;;5095812;28;20123;-76
2021/12/04 09:02:41;;;;;;;23.85;9.57;;;;;;;;;;5095937;28;20028;-77
2021/12/04 09:05:07;;;;;;;17.17;9.05;;;;;;;;;;5095911;28;20032;-77
2021/12/04 09:07:32;;;;;;;16.80;8.50;;;;;;;;;;5095585;28;20500;-78
2021/12/04 09:09:58;;;;;;;18.35;9.13;;;;;;;;;;5095774;28;20047;-78
2021/12/04 09:12:24;;;;;;;17.20;8.48;;;;;;;;;;5095707;28;20024;-78
2021/12/04 09:14:50;;;;;;;16.08;9.25;;;;;;;;;;5077715;28;20049;-78
2021/12/04 09:17:16;;;;;;;16.35;8.30;;;;;;;;;;5077514;28;20032;-78
2021/12/04 09:19:42;;;;;;;25.85;12.90;;;;;;;;;;5094354;28;20036;-78
2021/12/04 09:22:12;;;;;;;19.88;7.63;;;;;;;;;;5095265;28;20035;-79
2021/12/04 09:24:40;;;;;;;16.88;7.57;;;;;;;;;;5078231;28;20027;-78
2021/12/04 09:27:17;;;;;;;24.80;11.25;;;;;;;;;;5095362;28;20024;-77
2021/12/04 10:02:31;;;;;;;30.77;15.13;;;;;;;;;;5095388;28;20031;-79
2021/12/04 10:33:27;;;;;;;27.73;14.27;;;;;;;;;;5094629;28;20050;-77
2021/12/04 10:35:53;;;;;;;26.65;13.07;;;;;;;;;;5076097;28;20461;-78
2021/12/04 10:38:21;;;;;;;21.50;11.55;;;;;;;;;;5094274;28;20032;-76
2021/12/04 10:40:49;;;;;;;20.52;12.18;;;;;;;;;;5094868;28;20143;-77
2021/12/04 10:43:21;;;;;;;22.50;11.32;;;;;;;;;;5076064;28;20036;-77
2021/12/04 10:45:50;;;;;;;23.15;12.93;;;;;;;;;;5077031;28;20107;-76
2021/12/04 10:48:22;;;;;;;22.63;12.43;;;;;;;;;;5076374;28;20024;-77
2021/12/04 10:53:36;;;;;;;26.02;13.82;;;;;;;;;;5078751;28;20024;-78
2021/12/04 10:59:02;;;;;;;19.40;10.57;;;;;;;;;;5076239;28;20036;-78
2021/12/04 11:04:26;;;;;;;17.80;10.20;;;;;;;;;;5077242;28;20027;-76
2021/12/04 11:44:32;;;;;;;18.75;10.77;;;;;;;;;;5097482;28;20016;-79
2021/12/04 11:46:58;;;;;;;19.67;10.82;;;;;;;;;;5079867;28;20024;-78
2021/12/04 11:49:26;;;;;;;17.23;9.70;;;;;;;;;;5097561;28;20032;-77
2021/12/04 11:52:01;;;;;;;17.52;9.73;;;;;;;;;;5097227;28;20032;-78
2021/12/04 11:54:30;;;;;;;16.95;9.35;;;;;;;;;;5097481;28;20039;-78
2021/12/04 11:57:07;;;;;;;20.98;12.50;;;;;;;;;;5097229;28;20024;-78
2021/12/04 11:59:34;;;;;;;18.73;10.85;;;;;;;;;;5079193;28;20032;-78
2021/12/04 12:02:00;;;;;;;19.05;10.77;;;;;;;;;;5078808;28;20113;-78
2021/12/04 12:04:42;;;;;;;19.33;11.30;;;;;;;;;;5097120;28;20113;-78
2021/12/04 12:07:14;;;;;;;17.23;9.70;;;;;;;;;;5078920;28;20078;-78
2021/12/04 12:09:40;;;;;;;15.75;9.23;;;;;;;;;;5097058;28;20024;-78
2021/12/04 12:12:08;;;;;;;10.32;7.07;;;;;;;;;;5062449;28;20039;-79
2021/12/04 12:14:48;;;;;;;19.15;10.63;;;;;;;;;;5079054;28;20040;-78
2021/12/04 12:17:15;;;;;;;18.33;10.02;;;;;;;;;;5078425;28;20063;-79
2021/12/04 12:19:51;;;;;;;19.10;11.77;;;;;;;;;;5097020;28;20036;-77
2021/12/04 12:27:58;;;;;;;14.70;8.30;;;;;;;;;;5096708;28;20024;-79
2021/12/04 12:36:10;;;;;;;20.17;11.45;;;;;;;;;;5096555;28;20039;-78
2021/12/04 12:38:47;;;;;;;18.83;11.77;;;;;;;;;;5080258;28;20058;-79
2021/12/04 12:41:24;;;;;;;22.65;11.50;;;;;;;;;;5096428;28;20066;-78
2021/12/04 12:43:52;;;;;;;22.42;10.63;;;;;;;;;;5096338;28;20020;-78
2021/12/04 12:46:17;;;;;;;17.05;9.50;;;;;;;;;;5077883;28;20365;-78
2021/12/04 12:48:43;;;;;;;17.77;11.05;;;;;;;;;;5096271;28;20028;-78
2021/12/04 12:51:08;;;;;;;21.45;11.07;;;;;;;;;;5096224;28;20034;-78
2021/12/04 12:53:40;;;;;;;21.13;12.07;;;;;;;;;;5095895;28;20107;-79
2021/12/04 12:56:10;;;;;;;18.77;11.20;;;;;;;;;;5078558;28;20020;-78
2021/12/04 12:58:43;;;;;;;19.05;10.20;;;;;;;;;;5077721;28;20027;-78
2021/12/04 13:12:46;;;;;;;26.98;13.60;;;;;;;;;;5095818;28;20181;-78
2021/12/04 13:15:12;;;;;;;27.75;15.05;;;;;;;;;;5095469;28;20027;-79
2021/12/04 13:17:40;;;;;;;20.85;11.98;;;;;;;;;;5095682;28;20357;-78
2021/12/04 13:20:06;;;;;;;28.55;14.10;;;;;;;;;;5095540;28;20035;-78
2021/12/04 13:22:31;;;;;;;24.35;11.80;;;;;;;;;;5077488;28;20039;-78
2021/12/04 13:24:59;;;;;;;21.83;11.77;;;;;;;;;;5095547;28;20116;-78
2021/12/04 13:29:53;;;;;;;23.42;11.77;;;;;;;;;;5077450;28;20024;-78
2021/12/04 13:32:27;;;;;;;29.15;14.45;;;;;;;;;;5077396;28;20024;-79
2021/12/04 13:34:52;;;;;;;25.63;11.88;;;;;;;;;;5077264;28;20034;-78
2021/12/04 13:37:25;;;;;;;24.45;12.25;;;;;;;;;;5095311;28;20103;-78
2021/12/04 13:39:55;;;;;;;21.83;11.73;;;;;;;;;;5095067;28;20036;-78
2021/12/04 13:42:21;;;;;;;27.83;13.93;;;;;;;;;;5094960;28;20024;-79
2021/12/04 13:44:46;;;;;;;28.00;15.35;;;;;;;;;;5077078;28;20027;-79
2021/12/04 13:47:12;;;;;;;27.27;14.02;;;;;;;;;;5095149;28;20517;-75
2021/12/04 13:49:57;;;;;;;46.58;22.33;;;;;;;;;;5095073;28;20020;-79
2021/12/04 13:52:24;;;;;;;26.27;12.18;;;;;;;;;;5078638;28;20031;-77
2021/12/04 13:57:40;;;;;;;24.55;12.70;;;;;;;;;;5094726;28;20035;-78
2021/12/04 14:00:06;;;;;;;31.73;16.02;;;;;;;;;;5060044;28;20059;-79
2021/12/04 14:02:32;;;;;;;31.17;15.32;;;;;;;;;;5076720;28;20107;-76
2021/12/04 14:05:12;;;;;;;36.03;17.05;;;;;;;;;;5076173;28;20115;-78
2021/12/04 14:07:44;;;;;;;33.78;17.02;;;;;;;;;;5094817;28;20032;-77
2021/12/04 14:10:21;;;;;;;36.30;18.17;;;;;;;;;;5094965;28;20024;-76
2021/12/04 14:12:46;;;;;;;30.98;16.92;;;;;;;;;;5094399;28;20028;-78
2021/12/04 14:15:14;;;;;;;38.83;18.75;;;;;;;;;;5076649;28;20027;-77
2021/12/04 14:17:39;;;;;;;34.55;16.90;;;;;;;;;;5094563;28;20031;-77
2021/12/04 14:20:06;;;;;;;42.03;21.00;;;;;;;;;;5094480;28;20122;-76
2021/12/04 14:22:31;;;;;;;40.78;18.65;;;;;;;;;;5094548;28;20431;-78
2021/12/04 14:24:59;;;;;;;37.30;20.67;;;;;;;;;;5094467;28;20115;-80
2021/12/04 14:27:26;;;;;;;35.65;17.35;;;;;;;;;;5094175;28;20161;-77
2021/12/04 14:30:09;;;;;;;36.83;17.83;;;;;;;;;;5094430;28;20042;-79
2021/12/04 14:32:37;;;;;;;31.55;17.33;;;;;;;;;;5102302;28;20389;-79
2021/12/04 14:35:04;;;;;;;38.63;19.58;;;;;;;;;;5101422;28;20437;-76
2021/12/04 14:37:37;;;;;;;44.25;21.77;;;;;;;;;;5102097;28;20032;-77
2021/12/04 14:40:04;;;;;;;42.33;22.08;;;;;;;;;;5103776;28;20101;-76
2021/12/04 14:45:26;;;;;;;40.72;21.30;;;;;;;;;;5094275;28;20441;-78
2021/12/04 14:47:56;;;;;;;41.60;22.45;;;;;;;;;;5094249;28;20028;-77
2021/12/04 14:50:22;;;;;;;36.70;18.30;;;;;;;;;;5094164;28;20055;-77
2021/12/04 14:52:55;;;;;;;43.22;20.85;;;;;;;;;;5094138;28;20043;-78
2021/12/04 14:55:21;;;;;;;40.17;19.33;;;;;;;;;;5093949;28;20030;-77
2021/12/04 14:57:46;;;;;;;42.58;20.20;;;;;;;;;;5094385;28;20036;-77
2021/12/04 15:00:15;;;;;;;39.10;18.63;;;;;;;;;;5094101;28;20104;-78
2021/12/04 15:02:47;;;;;;;44.97;19.40;;;;;;;;;;5094692;28;20030;-77
2021/12/04 15:05:13;;;;;;;43.55;18.45;;;;;;;;;;5076329;28;20346;-78
2021/12/04 15:07:38;;;;;;;43.75;21.38;;;;;;;;;;5059265;28;20039;-77
2021/12/04 15:10:17;;;;;;;51.17;22.45;;;;;;;;;;5093702;28;20164;-77
2021/12/04 15:12:42;;;;;;;41.13;20.45;;;;;;;;;;5093960;28;20035;-78
2021/12/04 15:15:08;;;;;;;45.90;21.17;;;;;;;;;;5094014;28;20024;-77
2021/12/04 15:17:34;;;;;;;46.75;19.52;;;;;;;;;;5097129;28;20024;-78
2021/12/04 15:20:15;;;;;;;47.05;20.45;;;;;;;;;;5079892;28;20469;-78
2021/12/04 15:22:43;;;;;;;41.55;21.00;;;;;;;;;;5097865;28;20385;-78
2021/12/04 15:25:13;;;;;;;38.25;19.77;;;;;;;;;;5046944;28;20426;-78
2021/12/04 15:27:39;;;;;;;45.85;22.95;;;;;;;;;;5097834;28;20024;-78
2021/12/04 15:30:06;;;;;;;55.33;23.45;;;;;;;;;;5079652;28;20023;-78
2021/12/04 15:32:34;;;;;;;51.80;21.60;;;;;;;;;;5097703;28;20028;-78
2021/12/04 15:35:16;;;;;;;43.28;21.13;;;;;;;;;;5097721;28;20024;-78
2021/12/04 15:37:48;;;;;;;31.17;16.15;;;;;;;;;;5080569;28;20035;-77
2021/12/04 15:40:52;;;;;;;45.97;19.55;;;;;;;;;;5064084;28;20126;-77
2021/12/04 15:46:04;;;;;;;50.28;20.38;;;;;;;;;;5098018;28;20075;-78
2021/12/04 15:51:30;;;;;;;36.17;19.00;;;;;;;;;;5097333;28;20126;-78
2021/12/04 15:53:57;;;;;;;40.80;20.73;;;;;;;;;;5082317;28;20135;-78
2021/12/04 15:56:43;;;;;;;47.53;22.23;;;;;;;;;;5097271;28;20073;-78
2021/12/04 15:59:14;;;;;;;46.30;21.63;;;;;;;;;;5097189;28;20035;-78
2021/12/04 16:01:40;;;;;;;46.08;22.60;;;;;;;;;;5097098;28;20436;-78
2021/12/04 16:04:05;;;;;;;44.40;20.90;;;;;;;;;;5097810;28;20047;-78
2021/12/04 16:06:38;;;;;;;48.90;21.73;;;;;;;;;;5062413;28;20028;-78
2021/12/04 16:09:03;;;;;;;49.22;22.88;;;;;;;;;;5078720;28;20097;-78
2021/12/04 16:11:37;;;;;;;65.28;26.45;;;;;;;;;;5096983;28;20438;-78
2021/12/04 16:14:03;;;;;;;46.88;22.80;;;;;;;;;;5078812;28;20060;-78
2021/12/04 16:16:29;;;;;;;45.70;21.10;;;;;;;;;;5078938;28;20449;-79
2021/12/04 16:18:57;;;;;;;46.97;22.25;;;;;;;;;;5097063;28;20024;-78
2021/12/04 16:21:23;;;;;;;38.63;19.13;;;;;;;;;;5079077;28;20028;-78
2021/12/04 16:23:51;;;;;;;43.42;21.75;;;;;;;;;;5096546;28;20430;-79
2021/12/04 16:26:18;;;;;;;46.45;22.67;;;;;;;;;;5096658;28;20111;-77
2021/12/04 16:31:39;;;;;;;45.58;22.40;;;;;;;;;;5096635;28;20031;-78
2021/12/04 16:39:42;;;;;;;40.90;18.95;;;;;;;;;;5080997;28;20058;-77
2021/12/04 16:42:09;;;;;;;41.55;19.48;;;;;;;;;;5096430;28;20028;-78
2021/12/04 16:44:35;;;;;;;44.28;20.80;;;;;;;;;;5096259;28;20127;-78
2021/12/04 16:47:01;;;;;;;46.83;21.60;;;;;;;;;;5078327;28;20119;-79
2021/12/04 16:49:28;;;;;;;43.15;20.90;;;;;;;;;;5061733;28;20032;-78
2021/12/04 16:57:35;;;;;;;56.83;26.58;;;;;;;;;;5096715;28;20071;-78
2021/12/04 17:00:03;;;;;;;44.40;22.15;;;;;;;;;;5095912;28;20038;-78
2021/12/04 17:02:29;;;;;;;47.38;22.25;;;;;;;;;;5096064;28;20028;-79
2021/12/04 17:04:54;;;;;;;47.25;23.33;;;;;;;;;;5078088;28;20129;-77
2021/12/04 17:07:20;;;;;;;61.30;24.05;;;;;;;;;;5095654;28;20024;-78
2021/12/04 17:09:47;;;;;;;47.85;22.42;;;;;;;;;;5077772;28;20046;-78
2021/12/04 17:12:12;;;;;;;52.03;24.58;;;;;;;;;;5095845;28;20506;-78
2021/12/04 17:14:38;;;;;;;50.47;22.58;;;;;;;;;;5095780;28;20110;-78
2021/12/04 17:17:04;;;;;;;47.65;22.75;;;;;;;;;;5095723;28;20437;-78
2021/12/04 17:19:30;;;;;;;46.30;23.13;;;;;;;;;;5095610;28;20152;-78
2021/12/04 17:21:55;;;;;;;44.70;19.42;;;;;;;;;;5077379;28;20116;-78
2021/12/04 17:24:23;;;;;;;40.08;19.65;;;;;;;;;;5077567;28;20472;-78
2021/12/04 17:26:49;;;;;;;48.60;21.35;;;;;;;;;;5095546;28;20024;-77
2021/12/04 17:29:15;;;;;;;50.15;22.73;;;;;;;;;;5077449;28;20529;-77
2021/12/04 17:31:41;;;;;;;44.75;22.13;;;;;;;;;;5077455;28;20031;-77
2021/12/04 17:34:06;;;;;;;47.47;21.13;;;;;;;;;;5077554;28;20024;-77
2021/12/04 17:36:33;;;;;;;43.10;20.38;;;;;;;;;;5095363;28;20338;-77
2021/12/04 17:38:58;;;;;;;48.92;23.83;;;;;;;;;;5076858;28;20048;-77
2021/12/04 17:41:30;;;;;;;42.60;19.40;;;;;;;;;;5094537;28;20110;-78
2021/12/04 17:43:57;;;;;;;45.67;22.42;;;;;;;;;;5095219;28;20036;-78
2021/12/04 17:46:23;;;;;;;50.97;22.80;;;;;;;;;;5077153;28;20457;-77
2021/12/04 17:48:50;;;;;;;54.42;25.45;;;;;;;;;;5094832;28;20032;-78
2021/12/04 17:51:17;;;;;;;50.72;24.42;;;;;;;;;;5095048;28;20476;-78
2021/12/04 17:53:43;;;;;;;39.28;20.17;;;;;;;;;;5095224;28;20453;-78
2021/12/04 17:56:09;;;;;;;46.25;21.73;;;;;;;;;;5094937;28;20077;-77
2021/12/04 17:58:35;;;;;;;49.63;24.30;;;;;;;;;;5076869;28;20076;-78
2021/12/04 18:01:04;;;;;;;47.17;23.92;;;;;;;;;;5094915;28;20036;-78
2021/12/04 18:03:30;;;;;;;42.20;20.80;;;;;;;;;;5076897;28;20028;-77
2021/12/04 18:05:57;;;;;;;44.50;23.50;;;;;;;;;;5094759;28;20030;-77
2021/12/04 18:08:23;;;;;;;39.03;19.92;;;;;;;;;;5094738;28;20106;-78